M I D A S
Marine Information and Data Acquisition System
Tripno 2146 of the Zeeleeuw from 2011-07-15 08:13:18 to 2011-07-15 12:50:18
Back to CruiseResearch ActivitiesStationsMapUnderway DataData graphs

EquipmentUnitsComments
TimeDGPSUTC
LatitudeDGPSDM.mWGS84
LongitudeDGPSDM.mWGS84
SpeedMeteo Stationm/sRelative wind speed
DirectionMeteo StationdegRelative wind direction
TemperatureMeteo Stationdeg CelciusAir temperature
PressureMeteo StationPaAtmospheric pressure
HumidityMeteo Station%Relative humidity
Missing or incorrect values are displayed as -999
Metereological data collected by the RV Zeeleeuw from 2011-07-15 03:36:13 to 2011-07-15 12:59:38
Time Latitude Longitude Speed Direction Temperature Pressure Humidity
2011-07-15 03:37 51°13.646 2°56.008 -999 54 16.7 101730 36
2011-07-15 03:38 51°13.65 2°56.005 -999 54 16.7 101730 36
2011-07-15 03:39 51°13.652 2°56.006 -999 54 16.7 101730 36
2011-07-15 03:39 51°13.653 2°56.006 -999 54 16.7 101730 36
2011-07-15 03:41 51°13.653 2°56.006 -999 54 16.7 101730 36
2011-07-15 03:42 51°13.636 2°56.016 -999 55 16.7 101730 36
2011-07-15 03:43 51°13.636 2°56.016 -999 55 16.7 101730 36
2011-07-15 03:44 51°13.636 2°56.016 -999 54 16.6 101730 36
2011-07-15 03:45 51°13.635 2°56.016 -999 54 16.7 101730 36
2011-07-15 03:46 51°13.635 2°56.016 -999 54 16.7 101730 36
2011-07-15 03:47 51°13.635 2°56.016 -999 54 16.7 101730 36
2011-07-15 03:48 51°13.635 2°56.017 -999 55 16.7 101740 36
2011-07-15 03:49 51°13.635 2°56.017 -999 54 16.7 101730 36
2011-07-15 03:50 51°13.635 2°56.017 -999 54 16.7 101730 36
2011-07-15 03:51 51°13.636 2°56.016 -999 54 16.7 101730 37
2011-07-15 03:52 51°13.635 2°56.016 -999 54 16.7 101730 37
2011-07-15 03:53 51°13.635 2°56.016 -999 54 16.7 101740 37
2011-07-15 03:54 51°13.635 2°56.017 -999 54 16.7 101730 37
2011-07-15 03:55 51°13.635 2°56.017 -999 54 16.7 101730 37
2011-07-15 03:56 51°13.636 2°56.017 -999 54 16.6 101730 37
2011-07-15 03:57 51°13.636 2°56.016 -999 54 16.6 101740 36
2011-07-15 03:58 51°13.636 2°56.015 -999 54 16.7 101740 37
2011-07-15 03:59 51°13.636 2°56.015 -999 54 16.6 101740 36
2011-07-15 04:00 51°13.636 2°56.015 -999 54 16.6 101740 36
2011-07-15 04:01 51°13.636 2°56.016 -999 54 16.6 101740 37
2011-07-15 04:02 51°13.636 2°56.015 -999 54 16.6 101740 37
2011-07-15 04:03 51°13.636 2°56.016 -999 54 16.6 101740 36
2011-07-15 04:04 51°13.636 2°56.016 -999 54 16.6 101740 37
2011-07-15 04:05 51°13.637 2°56.016 -999 54 16.6 101740 37
2011-07-15 04:06 51°13.636 2°56.016 -999 54 16.6 101740 37
2011-07-15 04:07 51°13.636 2°56.016 -999 54 16.6 101740 37
2011-07-15 04:08 51°13.636 2°56.015 2.8 52 16.6 101740 37
2011-07-15 04:09 51°13.636 2°56.015 3 51 16.6 101740 37
2011-07-15 04:10 51°13.636 2°56.015 3.2 58 16.5 101750 37
2011-07-15 04:11 51°13.636 2°56.016 2.2 55 16.4 101740 35
2011-07-15 04:12 51°13.637 2°56.016 -999 54 16.4 101750 35
2011-07-15 04:13 51°13.637 2°56.017 0.3 53 16.5 101750 36
2011-07-15 04:14 51°13.637 2°56.017 -999 55 16.5 101750 36
2011-07-15 04:15 51°13.637 2°56.017 -999 54 16.5 101750 36
2011-07-15 04:16 51°13.636 2°56.017 -999 55 16.5 101750 37
2011-07-15 04:17 51°13.636 2°56.018 -999 54 16.5 101750 37
2011-07-15 04:18 51°13.637 2°56.019 -999 54 16.5 101750 37
2011-07-15 04:19 51°13.637 2°56.02 -999 54 16.5 101750 37
2011-07-15 04:20 51°13.637 2°56.02 -999 54 16.5 101760 37
2011-07-15 04:21 51°13.636 2°56.02 -999 54 16.5 101750 37
2011-07-15 04:22 51°13.636 2°56.019 -999 54 16.5 101760 37
2011-07-15 04:23 51°13.636 2°56.019 -999 54 16.5 101760 37
2011-07-15 04:24 51°13.636 2°56.019 -999 54 16.5 101750 36
2011-07-15 04:25 51°13.636 2°56.018 -999 54 16.5 101760 37
2011-07-15 04:26 51°13.636 2°56.017 -999 55 16.5 101760 36
2011-07-15 04:27 51°13.636 2°56.016 -999 55 16.5 101760 37
2011-07-15 04:28 51°13.636 2°56.016 -999 55 16.5 101760 37
2011-07-15 04:29 51°13.636 2°56.017 -999 54 16.5 101760 37
2011-07-15 04:30 51°13.636 2°56.017 -999 54 16.5 101760 37
2011-07-15 04:31 51°13.636 2°56.017 -999 55 16.5 101760 37
2011-07-15 04:32 51°13.636 2°56.017 -999 54 16.5 101760 37
2011-07-15 04:33 51°13.636 2°56.017 -999 54 16.5 101760 37
2011-07-15 04:34 51°13.636 2°56.017 -999 54 16.5 101760 37
2011-07-15 04:35 51°13.636 2°56.018 -999 54 16.5 101770 37
2011-07-15 04:36 51°13.636 2°56.018 -999 54 16.5 101760 37
2011-07-15 04:37 51°13.636 2°56.018 -999 54 16.5 101760 37
2011-07-15 04:38 51°13.636 2°56.018 -999 54 16.5 101760 37
2011-07-15 04:39 51°13.637 2°56.017 -999 54 16.5 101760 37
2011-07-15 04:40 51°13.636 2°56.017 -999 54 16.5 101760 37
2011-07-15 04:41 51°13.636 2°56.017 -999 54 16.5 101770 37
2011-07-15 04:42 51°13.636 2°56.017 -999 54 16.5 101770 38
2011-07-15 04:43 51°13.637 2°56.016 -999 54 16.5 101770 37
2011-07-15 04:44 51°13.637 2°56.016 -999 54 16.5 101770 38
2011-07-15 04:45 51°13.637 2°56.016 -999 54 16.5 101770 37
2011-07-15 04:46 51°13.636 2°56.018 -999 54 16.4 101770 37
2011-07-15 04:47 51°13.637 2°56.018 -999 54 16.4 101770 37
2011-07-15 04:48 51°13.637 2°56.018 -999 54 16.4 101770 36
2011-07-15 04:49 51°13.637 2°56.018 -999 54 16.4 101770 36
2011-07-15 04:50 51°13.637 2°56.018 -999 54 16.5 101770 36
2011-07-15 04:51 51°13.637 2°56.018 -999 54 16.5 101770 37
2011-07-15 04:52 51°13.637 2°56.018 -999 54 16.5 101770 36
2011-07-15 04:53 51°13.636 2°56.018 -999 54 16.4 101770 36
2011-07-15 04:54 51°13.637 2°56.017 -999 54 16.4 101770 37
2011-07-15 04:55 51°13.637 2°56.016 -999 55 16.4 101770 37
2011-07-15 04:56 51°13.638 2°56.016 -999 55 16.4 101770 37
2011-07-15 04:57 51°13.638 2°56.015 -999 54 16.4 101770 38
2011-07-15 04:58 51°13.638 2°56.015 -999 54 16.4 101770 38
2011-07-15 04:59 51°13.637 2°56.015 -999 54 16.4 101770 38
2011-07-15 05:00 51°13.637 2°56.016 -999 55 16.5 101770 38
2011-07-15 05:01 51°13.637 2°56.016 -999 55 16.4 101770 38
2011-07-15 05:02 51°13.637 2°56.016 -999 54 16.4 101770 38
2011-07-15 05:03 51°13.636 2°56.016 -999 55 16.4 101770 37
2011-07-15 05:04 51°13.637 2°56.016 -999 54 16.4 101770 37
2011-07-15 05:05 51°13.637 2°56.016 -999 55 16.4 101770 37
2011-07-15 05:06 51°13.636 2°56.017 -999 55 16.4 101770 37
2011-07-15 05:07 51°13.636 2°56.017 -999 55 16.4 101770 36
2011-07-15 05:08 51°13.636 2°56.017 -999 54 16.3 101770 36
2011-07-15 05:09 51°13.636 2°56.018 -999 54 16.3 101770 36
2011-07-15 05:10 51°13.636 2°56.017 -999 54 16.3 101770 36
2011-07-15 05:11 51°13.636 2°56.017 -999 55 16.3 101780 37
2011-07-15 05:12 51°13.636 2°56.018 -999 55 16.3 101770 37
2011-07-15 05:13 51°13.636 2°56.017 -999 35 16.4 101780 37
2011-07-15 05:14 51°13.636 2°56.017 -999 55 16.4 101780 38
2011-07-15 05:15 51°13.636 2°56.017 -999 55 16.4 101780 38
2011-07-15 05:16 51°13.636 2°56.018 -999 54 16.4 101780 38
2011-07-15 05:17 51°13.636 2°56.018 -999 54 16.4 101780 38
2011-07-15 05:18 51°13.636 2°56.017 -999 54 16.4 101780 39
2011-07-15 05:19 51°13.636 2°56.018 -999 55 16.4 101780 39
2011-07-15 05:20 51°13.635 2°56.018 -999 54 16.5 101780 39
2011-07-15 05:21 51°13.635 2°56.018 -999 54 16.5 101780 39
2011-07-15 05:22 51°13.636 2°56.018 -999 55 16.5 101780 39
2011-07-15 05:23 51°13.636 2°56.018 -999 54 16.4 101780 39
2011-07-15 05:24 51°13.636 2°56.017 -999 55 16.5 101780 39
2011-07-15 05:25 51°13.635 2°56.018 -999 35 16.4 101790 39
2011-07-15 05:26 51°13.636 2°56.017 -999 54 16.4 101790 39
2011-07-15 05:27 51°13.635 2°56.017 -999 54 16.5 101790 39
2011-07-15 05:28 51°13.636 2°56.017 -999 55 16.5 101790 39
2011-07-15 05:29 51°13.636 2°56.017 -999 55 16.6 101780 39
2011-07-15 05:30 51°13.637 2°56.016 -999 54 16.6 101790 39
2011-07-15 05:31 51°13.637 2°56.016 -999 55 16.6 101790 39
2011-07-15 05:32 51°13.637 2°56.016 -999 54 16.5 101790 39
2011-07-15 05:33 51°13.637 2°56.015 -999 55 16.4 101790 39
2011-07-15 05:34 51°13.637 2°56.015 -999 55 16.5 101790 39
2011-07-15 05:35 51°13.637 2°56.015 -999 54 16.5 101790 39
2011-07-15 05:36 51°13.637 2°56.016 -999 54 16.4 101790 38
2011-07-15 05:37 51°13.637 2°56.016 -999 54 16.5 101790 38
2011-07-15 05:38 51°13.637 2°56.017 -999 54 16.6 101800 38
2011-07-15 05:39 51°13.637 2°56.018 -999 54 16.6 101790 37
2011-07-15 05:40 51°13.637 2°56.018 -999 35 16.6 101800 37
2011-07-15 05:41 51°13.637 2°56.018 -999 54 16.6 101800 36
2011-07-15 05:42 51°13.637 2°56.018 -999 54 16.6 101800 36
2011-07-15 05:43 51°13.637 2°56.018 -999 55 16.6 101800 36
2011-07-15 05:44 51°13.637 2°56.019 -999 55 16.6 101800 37
2011-07-15 05:45 51°13.638 2°56.018 -999 54 16.6 101810 37
2011-07-15 05:46 51°13.639 2°56.017 -999 55 16.7 101800 37
2011-07-15 05:47 51°13.64 2°56.016 -999 54 16.8 101810 37
2011-07-15 05:48 51°13.641 2°56.015 -999 351 16.9 101810 37
2011-07-15 05:49 51°13.639 2°56.016 -999 357 16.8 101810 37
2011-07-15 05:50 51°13.639 2°56.016 -999 345 16.6 101810 38
2011-07-15 05:51 51°13.639 2°56.016 -999 6 16.5 101810 38
2011-07-15 05:52 51°13.638 2°56.015 -999 2 16.3 101810 39
2011-07-15 05:53 51°13.636 2°56.016 -999 6 16.2 101810 39
2011-07-15 05:54 51°13.637 2°56.016 -999 357 16.1 101810 39
2011-07-15 05:55 51°13.637 2°56.015 -999 354 15.9 101810 39
2011-07-15 05:56 51°13.639 2°56.014 -999 355 15.9 101810 39
2011-07-15 05:57 51°13.639 2°56.015 -999 353 15.8 101820 40
2011-07-15 05:58 51°13.637 2°56.017 -999 356 15.8 101820 40
2011-07-15 05:59 51°13.638 2°56.016 -999 349 15.8 101810 40
2011-07-15 06:00 51°13.637 2°56.017 -999 359 15.8 101810 40
2011-07-15 06:01 51°13.637 2°56.016 -999 351 15.7 101820 40
2011-07-15 06:02 51°13.638 2°56.015 -999 357 15.7 101820 40
2011-07-15 06:03 51°13.637 2°56.016 -999 353 15.8 101820 40
2011-07-15 06:04 51°13.638 2°56.016 -999 352 15.8 101820 40
2011-07-15 06:05 51°13.638 2°56.016 -999 352 15.9 101820 40
2011-07-15 06:06 51°13.637 2°56.017 -999 349 15.9 101820 40
2011-07-15 06:07 51°13.638 2°56.016 -999 344 16 101820 40
2011-07-15 06:08 51°13.638 2°56.016 -999 4 16 101820 40
2011-07-15 06:09 51°13.638 2°56.016 -999 8 16 101820 40
2011-07-15 06:10 51°13.637 2°56.017 -999 5 16 101820 40
2011-07-15 06:11 51°13.639 2°56.017 -999 7 16 101820 40
2011-07-15 06:12 51°13.637 2°56.018 -999 360 16 101820 40
2011-07-15 06:13 51°13.643 2°56.014 -999 6 16 101820 40
2011-07-15 06:14 51°13.63 2°56.023 -999 7 16.1 101820 40
2011-07-15 06:15 51°13.632 2°56.022 -999 14 16.2 101820 40
2011-07-15 06:16 51°13.633 2°56.021 -999 41 16.3 101820 40
2011-07-15 06:17 51°13.638 2°56.016 -999 43 16.3 101820 40
2011-07-15 06:18 51°13.633 2°56.021 -999 32 16.3 101820 40
2011-07-15 06:19 51°13.635 2°56.019 -999 41 16.3 101820 40
2011-07-15 06:20 51°13.636 2°56.018 -999 44 16.3 101820 40
2011-07-15 06:21 51°13.637 2°56.017 -999 34 16.3 101820 40
2011-07-15 06:22 51°13.636 2°56.017 -999 43 16.3 101820 40
2011-07-15 06:23 51°13.638 2°56.015 -999 28 16.4 101820 40
2011-07-15 06:24 51°13.638 2°56.015 -999 43 16.4 101830 40
2011-07-15 06:25 51°13.633 2°56.019 -999 42 16.4 101820 40
2011-07-15 06:26 51°13.634 2°56.019 -999 36 16.5 101820 40
2011-07-15 06:27 51°13.636 2°56.016 -999 39 16.5 101830 40
2011-07-15 06:28 51°13.637 2°56.015 -999 29 16.5 101830 40
2011-07-15 06:29 51°13.635 2°56.016 -999 43 16.6 101830 40
2011-07-15 06:30 51°13.636 2°56.016 -999 15 16.6 101830 40
2011-07-15 06:31 51°13.634 2°56.018 -999 16 16.7 101830 40
2011-07-15 06:32 51°13.633 2°56.019 -999 21 16.8 101830 40
2011-07-15 06:33 51°13.633 2°56.019 -999 34 16.8 101830 40
2011-07-15 06:34 51°13.635 2°56.018 -999 16 16.9 101830 40
2011-07-15 06:35 51°13.636 2°56.017 -999 26 17 101830 39
2011-07-15 06:36 51°13.636 2°56.017 -999 25 17 101830 39
2011-07-15 06:37 51°13.635 2°56.017 -999 32 17.1 101840 39
2011-07-15 06:38 51°13.635 2°56.018 -999 55 17 101830 39
2011-07-15 06:39 51°13.634 2°56.019 -999 29 17.1 101830 39
2011-07-15 06:40 51°13.636 2°56.019 -999 41 17.1 101830 39
2011-07-15 06:41 51°13.636 2°56.019 -999 38 17.1 101840 39
2011-07-15 06:42 51°13.636 2°56.019 -999 54 17.1 101830 39
2011-07-15 06:43 51°13.638 2°56.018 -999 54 17.2 101830 39
2011-07-15 06:44 51°13.639 2°56.018 -999 32 17.3 101830 39
2011-07-15 06:45 51°13.638 2°56.019 -999 44 17.3 101830 39
2011-07-15 06:46 51°13.637 2°56.019 -999 55 17.3 101830 39
2011-07-15 06:47 51°13.636 2°56.019 -999 55 17.4 101840 39
2011-07-15 06:48 51°13.636 2°56.019 -999 13 17.4 101840 38
2011-07-15 06:49 51°13.635 2°56.018 -999 55 17.5 101840 38
2011-07-15 06:50 51°13.635 2°56.018 -999 33 17.5 101840 37
2011-07-15 06:51 51°13.634 2°56.018 -999 31 17.5 101840 38
2011-07-15 06:52 51°13.635 2°56.018 -999 42 17.5 101840 38
2011-07-15 06:53 51°13.636 2°56.019 -999 43 17.6 101840 38
2011-07-15 06:54 51°13.636 2°56.02 -999 40 17.6 101840 38
2011-07-15 06:55 51°13.637 2°56.019 -999 33 17.7 101840 38
2011-07-15 06:56 51°13.637 2°56.019 -999 36 17.8 101840 38
2011-07-15 06:57 51°13.637 2°56.02 -999 54 17.7 101840 38
2011-07-15 06:58 51°13.636 2°56.02 -999 54 17.7 101840 36
2011-07-15 06:59 51°13.636 2°56.019 -999 54 17.7 101840 37
2011-07-15 07:00 51°13.636 2°56.019 -999 33 17.6 101840 37
2011-07-15 07:01 51°13.636 2°56.019 -999 54 17.6 101840 37
2011-07-15 07:02 51°13.636 2°56.018 -999 55 17.7 101840 37
2011-07-15 07:03 51°13.637 2°56.017 0.3 38 17.8 101840 37
2011-07-15 07:04 51°13.634 2°56.029 -999 41 17.9 101840 37
2011-07-15 07:05 51°13.635 2°56.027 2.3 42 17.9 101840 37
2011-07-15 07:06 51°13.633 2°56.031 -999 38 17.9 101840 36
2011-07-15 07:07 51°13.635 2°56.028 -999 44 17.8 101840 37
2011-07-15 07:08 51°13.635 2°56.028 -999 40 17.9 101840 37
2011-07-15 07:09 51°13.636 2°56.022 -999 37 17.9 101840 36
2011-07-15 07:10 51°13.641 2°55.996 -999 42 17.8 101840 36
2011-07-15 07:11 51°13.64 2°56.008 -999 41 17.8 101850 36
2011-07-15 07:12 51°13.638 2°56.017 -999 41 17.7 101840 35
2011-07-15 07:13 51°13.637 2°56.017 -999 55 17.7 101840 35
2011-07-15 07:14 51°13.638 2°56.018 -999 40 -999 -999 -999
2011-07-15 07:15 51°13.637 2°56.017 -999 44 17.8 101840 37
2011-07-15 07:16 51°13.636 2°56.016 -999 35 17.7 101850 36
2011-07-15 07:17 51°13.636 2°56.017 -999 54 17.7 101840 36
2011-07-15 07:18 51°13.637 2°56.016 -999 20 17.8 101840 37
2011-07-15 07:19 51°13.637 2°56.017 -999 14 18 101850 37
2011-07-15 07:20 51°13.637 2°56.017 -999 55 18.1 101840 37
2011-07-15 07:21 51°13.637 2°56.017 -999 38 18.1 101840 37
2011-07-15 07:22 51°13.637 2°56.018 -999 55 18.1 101850 36
2011-07-15 07:23 51°13.637 2°56.018 -999 54 18.1 101850 35
2011-07-15 07:24 51°13.636 2°56.018 -999 42 18 101850 34
2011-07-15 07:25 51°13.636 2°56.017 -999 55 17.9 101850 34
2011-07-15 07:26 51°13.636 2°56.017 -999 55 17.9 101850 35
2011-07-15 07:27 51°13.636 2°56.016 -999 54 17.9 101850 35
2011-07-15 07:28 51°13.636 2°56.016 -999 54 18 101850 35
2011-07-15 07:29 51°13.636 2°56.016 -999 37 18.1 101850 35
2011-07-15 07:30 51°13.637 2°56.017 -999 31 18 101850 36
2011-07-15 07:31 51°13.636 2°56.018 -999 36 18 101850 36
2011-07-15 07:32 51°13.636 2°56.018 -999 55 18 101850 36
2011-07-15 07:33 51°13.636 2°56.018 -999 34 18.2 101850 38
2011-07-15 07:34 51°13.636 2°56.018 -999 30 18.2 101850 38
2011-07-15 07:35 51°13.636 2°56.018 -999 30 18.1 101850 39
2011-07-15 07:36 51°13.636 2°56.017 -999 26 18.1 101850 39
2011-07-15 07:37 51°13.637 2°56.017 -999 55 18.1 101850 39
2011-07-15 07:38 51°13.637 2°56.017 -999 22 18.1 101850 40
2011-07-15 07:39 51°13.637 2°56.018 -999 7 18.2 101850 39
2011-07-15 07:40 51°13.637 2°56.018 -999 11 18.2 101850 40
2011-07-15 07:41 51°13.637 2°56.018 -999 19 18.1 101850 40
2011-07-15 07:42 51°13.637 2°56.018 -999 6 18.1 101850 40
2011-07-15 07:43 51°13.636 2°56.018 -999 8 18 101850 40
2011-07-15 07:44 51°13.636 2°56.018 -999 2 17.9 101850 40
2011-07-15 07:45 51°13.636 2°56.018 -999 5 17.9 101850 40
2011-07-15 07:46 51°13.636 2°56.017 -999 28 17.9 101850 40
2011-07-15 07:47 51°13.636 2°56.016 -999 27 17.9 101850 41
2011-07-15 07:48 51°13.636 2°56.016 -999 28 17.9 101850 40
2011-07-15 07:49 51°13.636 2°56.016 0.1 -999 17.9 101850 40
2011-07-15 07:50 51°13.636 2°56.016 -999 6 17.9 101850 40
2011-07-15 07:51 51°13.636 2°56.017 -999 9 17.9 101850 40
2011-07-15 07:52 51°13.636 2°56.017 -999 352 17.8 101850 40
2011-07-15 07:53 51°13.637 2°56.017 -999 2 17.8 101850 40
2011-07-15 07:54 51°13.637 2°56.018 -999 14 17.7 101850 40
2011-07-15 07:55 51°13.637 2°56.018 -999 20 17.8 101850 40
2011-07-15 07:56 51°13.637 2°56.018 -999 1 17.9 101850 40
2011-07-15 07:57 51°13.637 2°56.018 -999 1 17.9 101850 40
2011-07-15 07:58 51°13.636 2°56.018 -999 14 18 101850 40
2011-07-15 07:59 51°13.636 2°56.018 -999 23 18 101850 40
2011-07-15 08:00 51°13.635 2°56.018 -999 22 18.1 101850 40
2011-07-15 08:01 51°13.635 2°56.017 3.5 6 18.1 101850 40
2011-07-15 08:02 51°13.635 2°56.017 -999 17 17.9 101850 39
2011-07-15 08:03 51°13.635 2°56.017 -999 19 18 101850 40
2011-07-15 08:04 51°13.635 2°56.017 -999 30 18 101850 39
2011-07-15 08:05 51°13.633 2°56.016 -999 56 18 101850 39
2011-07-15 08:06 51°13.633 2°56.016 0.1 26 17.9 101850 39
2011-07-15 08:07 51°13.634 2°56.017 0.1 354 18 101850 39
2011-07-15 08:08 51°13.635 2°56.017 1.6 24 18 101850 39
2011-07-15 08:09 51°13.635 2°56.018 2.2 5 18 101850 38
2011-07-15 08:10 51°13.635 2°56.017 -999 9 18 101850 39
2011-07-15 08:11 51°13.636 2°56.018 1.7 34 17.9 101850 39
2011-07-15 08:12 51°13.636 2°56.017 0.1 38 17.8 101850 39
2011-07-15 08:13 51°13.636 2°56.018 0.1 36 17.8 101850 39
2011-07-15 08:14 51°13.636 2°56.018 -999 55 17.8 101850 39
2011-07-15 08:15 51°13.635 2°56.018 -999 30 17.8 101850 39
2011-07-15 08:16 51°13.637 2°56.014 -999 27 17.9 101850 39
2011-07-15 08:17 51°13.638 2°56.015 2.5 7 18 101850 39
2011-07-15 08:18 51°13.638 2°56.015 3.9 23 17.9 101850 38
2011-07-15 08:19 51°13.638 2°56.016 3.8 27 17.9 101850 38
2011-07-15 08:20 51°13.637 2°56.016 0.1 25 17.8 101850 38
2011-07-15 08:21 51°13.639 2°56.007 0.1 29 17.9 101850 38
2011-07-15 08:22 51°13.66 2°55.934 2.9 39 17.9 101850 38
2011-07-15 08:23 51°13.689 2°55.836 1.1 20 17.9 101850 38
2011-07-15 08:24 51°13.731 2°55.74 4.1 23 18 101850 39
2011-07-15 08:25 51°13.794 2°55.663 -999 38 18 101850 38
2011-07-15 08:26 51°13.881 2°55.634 -999 13 18.1 101850 39
2011-07-15 08:27 51°13.945 2°55.645 0.1 9 18.2 101850 38
2011-07-15 08:28 51°13.95 2°55.629 -999 305 18.2 101850 38
2011-07-15 08:29 51°13.979 2°55.56 -999 305 18.3 101840 38
2011-07-15 08:30 51°14.068 2°55.482 -999 305 18.5 101840 38
2011-07-15 08:31 51°14.176 2°55.387 7 303 18.6 101840 37
2011-07-15 08:32 51°14.306 2°55.267 6.6 304 18.5 101840 38
2011-07-15 08:33 51°14.463 2°55.11 6 301 18.3 101830 40
2011-07-15 08:34 51°14.627 2°54.927 7.8 304 18.1 101840 40
2011-07-15 08:35 51°14.803 2°54.751 7.6 302 17.9 101820 39
2011-07-15 08:36 51°14.98 2°54.575 8.2 308 17.7 101820 39
2011-07-15 08:37 51°15.13 2°54.365 7.9 301 17.6 101830 40
2011-07-15 08:38 51°15.288 2°54.144 6.9 308 17.5 101830 39
2011-07-15 08:39 51°15.446 2°53.94 7 309 17.4 101810 39
2011-07-15 08:40 51°15.613 2°53.749 7.8 307 17.4 101840 40
2011-07-15 08:41 51°15.783 2°53.555 6.9 301 17.5 101830 40
2011-07-15 08:42 51°15.958 2°53.388 6.8 303 17.4 101840 40
2011-07-15 08:43 51°16.135 2°53.238 6.8 303 17.3 101850 39
2011-07-15 08:44 51°16.313 2°53.087 5.7 308 17.3 101830 40
2011-07-15 08:45 51°16.496 2°52.948 6.4 302 17.3 101830 40
2011-07-15 08:46 51°16.681 2°52.822 5.4 307 17.4 101840 39
2011-07-15 08:47 51°16.864 2°52.702 5.7 303 17.3 101830 39
2011-07-15 08:48 51°17.041 2°52.568 6.1 304 17.4 101840 39
2011-07-15 08:49 51°17.208 2°52.41 7.6 303 17.4 101830 39
2011-07-15 08:50 51°17.362 2°52.202 7.6 303 17.4 101830 39
2011-07-15 08:51 51°17.521 2°52.001 6.8 303 17.4 101830 38
2011-07-15 08:52 51°17.676 2°51.797 7.5 310 17.4 101820 39
2011-07-15 08:53 51°17.832 2°51.601 7.1 307 17.5 101810 39
2011-07-15 08:54 51°17.985 2°51.388 8.1 308 17.4 101830 39
2011-07-15 08:55 51°18.136 2°51.163 7.2 304 17.5 101840 38
2011-07-15 08:56 51°18.292 2°50.948 7.8 307 17.5 101810 40
2011-07-15 08:57 51°18.446 2°50.728 7.7 307 17.5 101810 39
2011-07-15 08:58 51°18.597 2°50.501 7.3 308 17.5 101810 39
2011-07-15 08:59 51°18.749 2°50.271 7.8 309 17.5 101830 40
2011-07-15 09:00 51°18.906 2°50.06 6 305 17.4 101820 39
2011-07-15 09:01 51°19.061 2°49.839 8.3 309 17.5 101820 40
2011-07-15 09:02 51°19.218 2°49.634 6.6 304 17.4 101820 40
2011-07-15 09:03 51°19.372 2°49.411 7.2 306 17.4 101820 39
2011-07-15 09:04 51°19.529 2°49.192 7.1 303 17.5 101810 40
2011-07-15 09:05 51°19.686 2°48.964 6.5 309 17.5 101820 40
2011-07-15 09:06 51°19.843 2°48.74 6.5 302 17.5 101810 40
2011-07-15 09:07 51°19.998 2°48.515 8.3 302 17.5 101800 39
2011-07-15 09:08 51°20.152 2°48.284 7.5 308 17.6 101820 40
2011-07-15 09:09 51°20.307 2°48.049 7.2 308 17.6 101830 40
2011-07-15 09:10 51°20.465 2°47.818 8.1 306 17.6 101830 40
2011-07-15 09:11 51°20.622 2°47.591 6.9 309 17.5 101810 40
2011-07-15 09:12 51°20.779 2°47.373 7 304 17.5 101820 40
2011-07-15 09:13 51°20.934 2°47.155 7.7 309 17.5 101810 39
2011-07-15 09:14 51°21.086 2°46.925 7.7 301 17.6 101830 40
2011-07-15 09:15 51°21.246 2°46.711 7.5 300 17.6 101810 40
2011-07-15 09:16 51°21.401 2°46.493 10.2 309 17.6 101800 40
2011-07-15 09:17 51°21.544 2°46.263 9.9 310 17.6 101820 39
2011-07-15 09:18 51°21.672 2°46.003 10.4 302 17.5 101800 40
2011-07-15 09:19 51°21.778 2°45.713 9.9 303 17.5 101810 39
2011-07-15 09:20 51°21.889 2°45.429 7.8 308 17.5 101810 40
2011-07-15 09:21 51°21.999 2°45.146 10 308 17.4 101800 39
2011-07-15 09:22 51°22.111 2°44.867 7.7 311 17.5 101810 40
2011-07-15 09:23 51°22.224 2°44.584 8 306 17.5 101810 40
2011-07-15 09:24 51°22.335 2°44.295 9.5 306 17.5 101820 40
2011-07-15 09:25 51°22.449 2°44.005 9.1 304 17.6 101790 40
2011-07-15 09:26 51°22.559 2°43.714 4.6 308 17.6 101820 40
2011-07-15 09:27 51°22.651 2°43.473 7.9 306 17.6 101820 40
2011-07-15 09:28 51°22.719 2°43.381 5.1 300 17.7 101820 40
2011-07-15 09:29 51°22.725 2°43.348 7.5 56 17.8 101840 40
2011-07-15 09:30 51°22.709 2°43.324 6 52 17.7 101840 40
2011-07-15 09:31 51°22.71 2°43.347 5.8 40 17.6 101820 41
2011-07-15 09:32 51°22.702 2°43.371 7 31 17.6 101820 41
2011-07-15 09:33 51°22.679 2°43.388 5.5 23 17.5 101830 40
2011-07-15 09:34 51°22.659 2°43.422 5.1 43 17.6 101810 41
2011-07-15 09:35 51°22.694 2°43.443 3.2 303 17.6 101830 41
2011-07-15 09:36 51°22.748 2°43.386 5.7 310 17.6 101820 41
2011-07-15 09:37 51°22.74 2°43.368 7.4 306 17.8 101800 42
2011-07-15 09:38 51°22.725 2°43.359 4.7 304 17.9 101810 41
2011-07-15 09:39 51°22.71 2°43.35 5.4 307 17.9 101810 41
2011-07-15 09:40 51°22.678 2°43.354 6.4 307 17.9 101820 41
2011-07-15 09:41 51°22.654 2°43.346 4.9 308 17.9 101820 41
2011-07-15 09:42 51°22.658 2°43.327 4.7 301 17.8 101830 41
2011-07-15 09:43 51°22.657 2°43.305 8 307 17.8 101820 42
2011-07-15 09:44 51°22.652 2°43.287 8.1 304 17.8 101800 41
2011-07-15 09:45 51°22.647 2°43.266 6.8 305 17.8 101810 41
2011-07-15 09:46 51°22.663 2°43.238 5.5 65 17.9 101790 42
2011-07-15 09:47 51°22.679 2°43.226 5.2 53 17.8 101800 42
2011-07-15 09:48 51°22.687 2°43.216 5.4 52 17.8 101800 43
2011-07-15 09:49 51°22.695 2°43.215 5.5 58 17.7 101810 42
2011-07-15 09:50 51°22.698 2°43.228 5.1 52 17.6 101810 43
2011-07-15 09:51 51°22.693 2°43.241 6.6 51 17.5 101820 42
2011-07-15 09:52 51°22.686 2°43.251 6.7 54 17.4 101810 42
2011-07-15 09:53 51°22.679 2°43.259 6.4 50 17.4 101810 43
2011-07-15 09:54 51°22.671 2°43.257 6.7 57 17.4 101810 43
2011-07-15 09:55 51°22.66 2°43.234 7 59 17.3 101810 44
2011-07-15 09:56 51°22.656 2°43.233 5.4 51 17.3 101790 43
2011-07-15 09:57 51°22.671 2°43.233 3.5 309 17.3 101800 44
2011-07-15 09:58 51°22.68 2°43.213 7 301 17.4 101790 45
2011-07-15 09:59 51°22.68 2°43.196 9.6 301 17.5 101780 46
2011-07-15 10:00 51°22.677 2°43.183 6.5 308 17.6 101780 45
2011-07-15 10:01 51°22.673 2°43.176 6 308 17.7 101800 46
2011-07-15 10:02 51°22.664 2°43.171 6.2 303 17.9 101780 46
2011-07-15 10:03 51°22.657 2°43.165 6.7 302 17.9 101790 44
2011-07-15 10:04 51°22.683 2°43.145 3.7 301 18 101800 46
2011-07-15 10:05 51°22.711 2°43.23 4.3 28 17.9 101810 45
2011-07-15 10:06 51°22.66 2°43.303 6 20 17.9 101800 45
2011-07-15 10:07 51°22.615 2°43.333 6.5 12 17.8 101800 44
2011-07-15 10:08 51°22.58 2°43.345 7.3 10 17.7 101800 44
2011-07-15 10:09 51°22.551 2°43.35 6.9 9 17.5 101790 44
2011-07-15 10:10 51°22.526 2°43.353 7.5 9 17.4 101790 45
2011-07-15 10:11 51°22.503 2°43.355 5.1 5 17.2 101800 42
2011-07-15 10:12 51°22.463 2°43.329 8.7 336 17.2 101800 44
2011-07-15 10:13 51°22.452 2°43.245 8.3 309 17.3 101800 44
2011-07-15 10:14 51°22.493 2°43.215 4.9 63 17.4 101790 44
2011-07-15 10:15 51°22.55 2°43.226 5.3 304 17.5 101800 45
2011-07-15 10:16 51°22.613 2°43.219 6.3 305 17.6 101790 45
2011-07-15 10:17 51°22.655 2°43.208 4.2 301 17.7 101810 43
2011-07-15 10:18 51°22.673 2°43.199 6.3 301 17.7 101800 44
2011-07-15 10:19 51°22.678 2°43.191 6.7 309 17.8 101800 42
2011-07-15 10:20 51°22.675 2°43.191 6.2 303 17.8 101800 44
2011-07-15 10:21 51°22.67 2°43.198 6.7 305 17.9 101800 44
2011-07-15 10:22 51°22.686 2°43.156 7.1 307 17.9 101790 44
2011-07-15 10:23 51°22.653 2°43.086 7.7 352 17.9 101790 43
2011-07-15 10:24 51°22.604 2°43.103 5.8 20 17.6 101770 43
2011-07-15 10:25 51°22.559 2°43.167 5.8 24 17.5 101790 43
2011-07-15 10:26 51°22.519 2°43.233 5.7 23 17.4 101790 43
2011-07-15 10:27 51°22.492 2°43.287 5.4 37 17.3 101800 40
2011-07-15 10:28 51°22.49 2°43.348 1.8 57 17.3 101800 42
2011-07-15 10:29 51°22.512 2°43.383 4.7 305 17.3 101800 42
2011-07-15 10:30 51°22.549 2°43.37 5.5 304 17.4 101800 41
2011-07-15 10:31 51°22.592 2°43.324 6.7 303 17.6 101790 42
2011-07-15 10:32 51°22.611 2°43.299 5.8 302 17.7 101800 42
2011-07-15 10:33 51°22.622 2°43.284 5.8 306 17.8 101790 41
2011-07-15 10:34 51°22.628 2°43.278 6.7 308 17.8 101780 42
2011-07-15 10:35 51°22.632 2°43.28 6.5 309 17.8 101790 39
2011-07-15 10:36 51°22.637 2°43.29 6.9 310 17.9 101780 41
2011-07-15 10:37 51°22.639 2°43.303 7.7 302 18 101780 41
2011-07-15 10:38 51°22.633 2°43.323 4.8 303 18 101770 41
2011-07-15 10:39 51°22.619 2°43.341 6 307 18 101790 41
2011-07-15 10:40 51°22.598 2°43.353 5.2 58 17.9 101780 40
2011-07-15 10:41 51°22.581 2°43.363 6.3 54 17.9 101780 42
2011-07-15 10:42 51°22.57 2°43.373 6.1 52 17.8 101780 42
2011-07-15 10:43 51°22.563 2°43.385 5.7 56 17.7 101780 40
2011-07-15 10:44 51°22.562 2°43.404 5.2 57 17.6 101780 41
2011-07-15 10:45 51°22.565 2°43.425 4.6 54 17.6 101790 41
2011-07-15 10:46 51°22.568 2°43.446 5 60 17.7 101790 42
2011-07-15 10:47 51°22.573 2°43.465 2.8 309 17.8 101780 42
2011-07-15 10:48 51°22.578 2°43.481 5 302 17.9 101770 42
2011-07-15 10:49 51°22.589 2°43.494 6.7 302 18 101780 42
2011-07-15 10:50 51°22.602 2°43.503 6.5 301 18 101780 42
2011-07-15 10:51 51°22.615 2°43.51 6.2 308 18 101770 40
2011-07-15 10:52 51°22.625 2°43.523 5.1 302 18.1 101770 42
2011-07-15 10:53 51°22.632 2°43.542 5.6 308 18.2 101780 41
2011-07-15 10:54 51°22.638 2°43.565 5.7 306 18.2 101770 41
2011-07-15 10:55 51°22.644 2°43.591 5.4 300 18.2 101780 42
2011-07-15 10:56 51°22.647 2°43.617 4 303 18.3 101780 42
2011-07-15 10:57 51°22.651 2°43.644 4.4 301 18.2 101780 41
2011-07-15 10:58 51°22.662 2°43.665 6.4 309 18.2 101760 41
2011-07-15 10:59 51°22.677 2°43.679 6.6 306 18.3 101760 40
2011-07-15 11:00 51°22.698 2°43.658 7 302 18.2 101760 41
2011-07-15 11:01 51°22.712 2°43.649 6.3 307 18.1 101770 41
2011-07-15 11:02 51°22.722 2°43.655 5.2 306 18.1 101750 41
2011-07-15 11:03 51°22.733 2°43.67 5.3 302 18 101770 42
2011-07-15 11:04 51°22.744 2°43.693 5.5 309 18 101750 42
2011-07-15 11:05 51°22.752 2°43.722 6 303 18.1 101770 41
2011-07-15 11:06 51°22.758 2°43.75 5 302 18.1 101750 41
2011-07-15 11:07 51°22.765 2°43.781 5.9 309 18.2 101770 40
2011-07-15 11:08 51°22.77 2°43.812 3.2 302 18.2 101770 42
2011-07-15 11:09 51°22.775 2°43.843 3.3 306 18.3 101780 42
2011-07-15 11:10 51°22.804 2°43.872 5.4 303 18.2 101770 42
2011-07-15 11:11 51°22.85 2°43.888 7.2 303 18.2 101770 43
2011-07-15 11:12 51°22.896 2°43.875 7.3 306 18.2 101780 42
2011-07-15 11:13 51°22.916 2°43.827 6.6 333 18.2 101780 42
2011-07-15 11:14 51°22.896 2°43.782 6.4 349 18.2 101760 43
2011-07-15 11:15 51°22.863 2°43.772 6.1 354 17.9 101760 42
2011-07-15 11:16 51°22.838 2°43.789 5.8 4 17.7 101750 44
2011-07-15 11:17 51°22.822 2°43.818 5.6 7 17.6 101760 46
2011-07-15 11:18 51°22.812 2°43.848 6.2 7 17.6 101750 48
2011-07-15 11:19 51°22.808 2°43.878 4.5 8 17.6 101760 50
2011-07-15 11:20 51°22.803 2°43.908 4.5 9 17.6 101750 50
2011-07-15 11:21 51°22.784 2°43.938 6.6 10 17.6 101750 51
2011-07-15 11:22 51°22.753 2°43.973 5.5 12 17.5 101750 50
2011-07-15 11:23 51°22.715 2°44.018 5.4 14 17.5 101750 49
2011-07-15 11:24 51°22.681 2°44.074 4.9 17 17.5 101760 50
2011-07-15 11:25 51°22.656 2°44.129 4.4 19 17.5 101770 50
2011-07-15 11:26 51°22.635 2°44.182 4.7 16 17.6 101750 50
2011-07-15 11:27 51°22.617 2°44.267 2.8 61 17.6 101770 50
2011-07-15 11:28 51°22.653 2°44.369 3.1 307 17.6 101770 50
2011-07-15 11:29 51°22.693 2°44.42 3.7 304 17.7 101770 51
2011-07-15 11:30 51°22.738 2°44.454 5.3 308 17.8 101760 50
2011-07-15 11:31 51°22.785 2°44.467 5.3 308 17.9 101760 49
2011-07-15 11:32 51°22.813 2°44.437 6.4 333 17.9 101760 49
2011-07-15 11:33 51°22.795 2°44.354 8 337 17.8 101750 49
2011-07-15 11:34 51°22.763 2°44.213 8.8 335 17.8 101750 50
2011-07-15 11:35 51°22.747 2°44.071 7.1 332 17.8 101760 50
2011-07-15 11:36 51°22.754 2°43.96 7.2 300 17.8 101750 49
2011-07-15 11:37 51°22.774 2°43.86 7.4 326 17.8 101750 49
2011-07-15 11:38 51°22.792 2°43.759 6.8 327 17.9 101770 50
2011-07-15 11:39 51°22.809 2°43.673 6.9 302 17.8 101750 48
2011-07-15 11:40 51°22.818 2°43.633 5.9 330 17.7 101760 49
2011-07-15 11:41 51°22.827 2°43.62 5.1 330 17.7 101760 50
2011-07-15 11:42 51°22.838 2°43.623 5.1 330 17.7 101770 49
2011-07-15 11:43 51°22.848 2°43.639 4.4 341 17.7 101760 49
2011-07-15 11:44 51°22.866 2°43.684 4.7 357 17.6 101750 49
2011-07-15 11:45 51°22.881 2°43.725 4.6 4 17.5 101750 49
2011-07-15 11:46 51°22.891 2°43.767 5.1 7 17.4 101760 50
2011-07-15 11:47 51°22.902 2°43.811 4.5 18 17.3 101750 48
2011-07-15 11:48 51°22.913 2°43.854 4.2 22 17.4 101770 50
2011-07-15 11:49 51°22.922 2°43.899 4.5 18 17.4 101760 50
2011-07-15 11:50 51°22.932 2°43.945 3.9 20 17.4 101760 49
2011-07-15 11:51 51°22.939 2°43.989 5 21 17.5 101750 49
2011-07-15 11:52 51°22.944 2°44.032 4.4 17 17.5 101760 50
2011-07-15 11:53 51°22.932 2°44.087 3.6 27 17.5 101750 49
2011-07-15 11:54 51°22.882 2°44.193 4.3 10 17.6 101760 50
2011-07-15 11:55 51°22.772 2°44.355 4 1 17.5 101750 49
2011-07-15 11:56 51°22.63 2°44.546 4.4 2 17.5 101750 49
2011-07-15 11:57 51°22.485 2°44.744 4.7 359 17.5 101750 50
2011-07-15 11:58 51°22.339 2°44.961 5.9 356 17.4 101750 50
2011-07-15 11:59 51°22.194 2°45.178 5.1 359 17.4 101740 50
2011-07-15 12:00 51°22.049 2°45.398 5.3 2 17.3 101730 50
2011-07-15 12:01 51°21.9 2°45.614 4 3 17.3 101750 49
2011-07-15 12:02 51°21.755 2°45.835 4.9 2 17.4 101740 49
2011-07-15 12:03 51°21.61 2°46.06 4.2 2 17.4 101740 50
2011-07-15 12:04 51°21.467 2°46.273 4.5 359 17.5 101750 49
2011-07-15 12:05 51°21.323 2°46.499 4.4 360 17.5 101740 51
2011-07-15 12:06 51°21.184 2°46.72 4.7 356 17.5 101740 50
2011-07-15 12:07 51°21.042 2°46.95 4.9 358 17.6 101740 50
2011-07-15 12:08 51°20.897 2°47.166 5.2 357 17.6 101740 51
2011-07-15 12:09 51°20.75 2°47.39 5.1 358 17.5 101750 50
2011-07-15 12:10 51°20.601 2°47.612 3.4 2 17.5 101750 50
2011-07-15 12:11 51°20.459 2°47.842 4.6 360 17.4 101750 51
2011-07-15 12:12 51°20.316 2°48.061 4.5 359 17.5 101740 50
2011-07-15 12:13 51°20.177 2°48.269 3.7 -999 17.5 101740 50
2011-07-15 12:14 51°20.033 2°48.488 5.6 2 17.5 101750 50
2011-07-15 12:15 51°19.895 2°48.702 3.9 356 17.5 101750 50
2011-07-15 12:16 51°19.752 2°48.924 3.6 2 17.5 101740 50
2011-07-15 12:17 51°19.614 2°49.141 4.5 2 17.5 101750 49
2011-07-15 12:18 51°19.469 2°49.357 3.6 359 17.6 101740 49
2011-07-15 12:19 51°19.324 2°49.576 4.3 3 17.6 101740 48
2011-07-15 12:20 51°19.179 2°49.797 3.8 1 17.6 101740 49
2011-07-15 12:21 51°19.031 2°50.02 3.9 3 17.6 101750 50
2011-07-15 12:22 51°18.887 2°50.237 3.3 8 17.6 101750 50
2011-07-15 12:23 51°18.738 2°50.458 2.3 6 17.6 101740 50
2011-07-15 12:24 51°18.595 2°50.673 1.6 7 17.6 101740 50
2011-07-15 12:25 51°18.454 2°50.897 2.9 2 17.7 101740 50
2011-07-15 12:26 51°18.312 2°51.12 2.9 6 17.7 101740 50
2011-07-15 12:27 51°18.171 2°51.34 2.9 359 17.7 101730 48
2011-07-15 12:28 51°18.027 2°51.55 -999 1 17.7 101740 49
2011-07-15 12:29 51°17.881 2°51.752 2.3 6 17.8 101730 50
2011-07-15 12:30 51°17.732 2°51.96 2.2 8 17.7 101730 49
2011-07-15 12:31 51°17.595 2°52.179 3 3 17.7 101730 50
2011-07-15 12:32 51°17.431 2°52.34 4.7 360 17.7 101740 50
2011-07-15 12:33 51°17.262 2°52.464 4.5 2 17.7 101730 49
2011-07-15 12:34 51°17.093 2°52.595 3.5 5 17.7 101730 50
2011-07-15 12:35 51°16.924 2°52.728 4 358 17.6 101730 48
2011-07-15 12:36 51°16.757 2°52.876 3.2 358 17.7 101730 50
2011-07-15 12:37 51°16.59 2°53.026 4 357 17.7 101730 50
2011-07-15 12:38 51°16.423 2°53.169 5.2 1 17.7 101730 51
2011-07-15 12:39 51°16.251 2°53.288 4.7 356 17.7 101730 51
2011-07-15 12:40 51°16.085 2°53.408 4.7 -999 17.7 101730 50
2011-07-15 12:41 51°15.91 2°53.521 4.2 359 17.7 101730 51
2011-07-15 12:42 51°15.738 2°53.606 5.3 358 17.6 101720 50
2011-07-15 12:43 51°15.566 2°53.722 4.6 355 17.6 101730 49
2011-07-15 12:44 51°15.401 2°53.885 3.3 353 17.7 101740 49
2011-07-15 12:45 51°15.261 2°54.108 -999 351 17.7 101740 50
2011-07-15 12:46 51°15.119 2°54.331 3.3 356 17.8 101730 49
2011-07-15 12:47 51°14.973 2°54.56 2.7 358 17.7 101740 50
2011-07-15 12:48 51°14.84 2°54.787 2.4 357 17.7 101730 49
2011-07-15 12:49 51°14.689 2°54.972 4.1 356 17.7 101730 50
2011-07-15 12:50 51°14.517 2°55.095 4.7 352 17.7 101730 49
2011-07-15 12:51 51°14.334 2°55.235 4.9 358 17.7 101720 48
2011-07-15 12:52 51°14.16 2°55.375 5.1 352 17.7 101730 50
2011-07-15 12:53 51°14.028 2°55.474 0.2 349 17.8 101740 50
2011-07-15 12:54 51°13.914 2°55.56 -999 20 17.9 101740 50
2011-07-15 12:55 51°13.805 2°55.647 3.5 2 18 101730 50
2011-07-15 12:56 51°13.722 2°55.763 0.3 28 18.1 101730 49
2011-07-15 12:57 51°13.67 2°55.873 -999 56 18.2 101730 49
2011-07-15 12:58 51°13.644 2°55.969 1.1 51 18.4 101730 50
2011-07-15 12:59 51°13.636 2°56.014 2.2 52 18.5 101730 47